Time;durP1;ratioP1;P1;durP2;ratioP2;P2;SDS_P1;SDS_P2;PMS_P1;PMS_P2;Temp;Humidity;BMP_temperature;BMP_pressure;BME280_temperature;BME280_humidity;BME280_pressure;Samples;Min_cycle;Max_cycle;Signal;HPM_P1;HPM_P2
2022/12/24 00:02:19;;;;;;;1.75;1.40;;;14.00;99.90;;;;;;5032847;28;20036;-88
2022/12/24 00:04:45;;;;;;;2.03;1.30;;;14.00;99.90;;;;;;5032724;28;20037;-88
2022/12/24 00:07:11;;;;;;;2.40;1.23;;;14.00;99.90;;;;;;5032407;28;20474;-88
2022/12/24 00:09:36;;;;;;;3.95;1.85;;;14.00;99.90;;;;;;5032895;28;20083;-90
2022/12/24 00:12:03;;;;;;;1.30;0.93;;;14.00;99.90;;;;;;5032668;28;20021;-90
2022/12/24 00:14:28;;;;;;;1.88;1.42;;;14.00;99.90;;;;;;5032538;28;20371;-90
2022/12/24 00:16:54;;;;;;;2.30;1.25;;;14.00;99.90;;;;;;5032533;28;20029;-90
2022/12/24 00:19:20;;;;;;;2.47;1.30;;;14.10;99.90;;;;;;5032809;28;20037;-88
2022/12/24 00:21:45;;;;;;;2.45;1.30;;;14.00;99.90;;;;;;5032523;28;20065;-88
2022/12/24 00:24:11;;;;;;;5.30;1.60;;;13.90;99.90;;;;;;5033026;28;20045;-88
2022/12/24 00:26:36;;;;;;;1.48;1.30;;;13.80;99.90;;;;;;5032661;28;20543;-88
2022/12/24 00:29:02;;;;;;;3.40;1.38;;;13.80;99.90;;;;;;5032520;28;20022;-88
2022/12/24 00:31:28;;;;;;;1.55;1.13;;;13.70;99.90;;;;;;5032774;28;20055;-88
2022/12/24 00:33:54;;;;;;;1.30;1.17;;;13.70;99.90;;;;;;5031938;28;20037;-88
2022/12/24 00:36:19;;;;;;;1.20;1.10;;;13.80;99.90;;;;;;5032412;28;20082;-88
2022/12/24 00:38:46;;;;;;;1.63;1.00;;;13.70;99.90;;;;;;5014777;28;20041;-88
2022/12/24 00:41:26;;;;;;;2.78;1.13;;;13.70;99.90;;;;;;5032182;28;20499;-88
2022/12/24 00:44:00;;;;;;;1.38;1.10;;;13.70;99.90;;;;;;5036870;28;20033;-88
2022/12/24 00:46:28;;;;;;;2.97;1.20;;;13.70;99.90;;;;;;5020866;28;20489;-88
2022/12/24 00:48:54;;;;;;;1.23;1.13;;;13.70;99.90;;;;;;5038826;28;20025;-88
2022/12/24 00:51:20;;;;;;;2.28;1.60;;;13.60;99.90;;;;;;5038757;28;20187;-88
2022/12/24 00:53:46;;;;;;;2.30;1.98;;;13.70;99.90;;;;;;5038666;28;20434;-88
2022/12/24 00:56:12;;;;;;;3.25;1.60;;;13.60;99.90;;;;;;5038950;28;20103;-88
2022/12/24 00:58:37;;;;;;;3.25;1.48;;;13.70;99.90;;;;;;5038942;28;20021;-89
2022/12/24 01:01:03;;;;;;;3.00;1.80;;;13.60;99.90;;;;;;5038532;28;20493;-89
2022/12/24 01:03:35;;;;;;;1.95;1.58;;;13.60;99.90;;;;;;5039294;28;20025;-88
2022/12/24 01:06:05;;;;;;;1.23;1.13;;;13.60;99.90;;;;;;5038397;28;20482;-88
2022/12/24 01:08:31;;;;;;;1.52;1.17;;;13.60;99.90;;;;;;5038587;28;20470;-88
2022/12/24 01:10:57;;;;;;;2.55;1.20;;;13.60;99.90;;;;;;5038685;28;20040;-89
2022/12/24 01:13:23;;;;;;;1.60;1.40;;;13.60;99.90;;;;;;5038744;28;20017;-88
2022/12/24 01:15:49;;;;;;;1.10;1.00;;;13.60;99.90;;;;;;5020772;28;20030;-88
2022/12/24 01:18:15;;;;;;;1.83;1.10;;;13.60;99.90;;;;;;5038591;28;20048;-87
2022/12/24 01:20:40;;;;;;;2.75;1.50;;;13.60;99.90;;;;;;5020720;28;20071;-88
2022/12/24 01:23:06;;;;;;;2.70;1.25;;;13.50;99.90;;;;;;5038467;28;20025;-87
2022/12/24 01:25:32;;;;;;;2.00;1.38;;;13.50;99.90;;;;;;5021162;28;20035;-89
2022/12/24 01:27:57;;;;;;;1.60;1.42;;;13.60;99.90;;;;;;5038485;28;20029;-88
2022/12/24 01:30:23;;;;;;;2.08;1.67;;;13.60;99.90;;;;;;5038158;28;20482;-89
2022/12/24 01:32:49;;;;;;;2.25;1.98;;;13.60;99.90;;;;;;5020765;28;20470;-88
2022/12/24 01:35:15;;;;;;;3.00;1.20;;;13.60;99.90;;;;;;5038360;28;20490;-88
2022/12/24 01:37:41;;;;;;;1.23;1.00;;;13.50;99.90;;;;;;5038687;28;20021;-88
2022/12/24 01:45:44;;;;;;;2.75;1.30;;;13.50;99.90;;;;;;5039059;28;20491;-87
2022/12/24 01:48:30;;;;;;;1.75;1.30;;;13.50;99.90;;;;;;5038462;28;20053;-88
2022/12/24 01:51:26;;;;;;;1.52;1.20;;;13.50;99.90;;;;;;5039244;28;20556;-89
2022/12/24 01:53:57;;;;;;;3.35;1.45;;;13.60;99.90;;;;;;5037279;28;20077;-88
2022/12/24 01:56:23;;;;;;;2.20;1.30;;;13.60;99.90;;;;;;5034463;28;20036;-88
2022/12/24 01:58:54;;;;;;;3.78;1.20;;;13.60;99.90;;;;;;5034736;28;20040;-88
2022/12/24 02:01:20;;;;;;;2.78;1.30;;;13.50;99.90;;;;;;5035270;28;20064;-88
2022/12/24 02:03:46;;;;;;;1.33;1.23;;;13.40;99.90;;;;;;5035400;28;20029;-89
2022/12/24 02:06:16;;;;;;;1.67;1.00;;;13.40;99.90;;;;;;5017334;28;20026;-88
2022/12/24 02:08:43;;;;;;;1.85;1.10;;;13.40;99.90;;;;;;5035360;28;20551;-88
2022/12/24 02:11:16;;;;;;;1.48;1.00;;;13.50;99.90;;;;;;5034971;28;20397;-88
2022/12/24 02:13:47;;;;;;;1.42;1.00;;;13.50;99.90;;;;;;5034079;28;20032;-89
2022/12/24 02:16:31;;;;;;;2.63;1.65;;;13.40;99.90;;;;;;5035353;28;20034;-88
2022/12/24 02:19:14;;;;;;;1.83;1.20;;;13.30;99.90;;;;;;5034379;28;20052;-88
2022/12/24 02:21:52;;;;;;;2.38;1.23;;;13.20;99.90;;;;;;5035039;28;20029;-88
2022/12/24 02:24:31;;;;;;;1.50;1.13;;;13.20;99.90;;;;;;5035013;28;20033;-89
2022/12/24 02:27:03;;;;;;;1.98;1.20;;;13.20;99.90;;;;;;5034657;28;20025;-89
2022/12/24 02:30:00;;;;;;;2.80;0.98;;;13.20;99.90;;;;;;5034348;28;20129;-88
2022/12/24 02:32:34;;;;;;;1.48;1.20;;;13.30;99.90;;;;;;5034241;28;20033;-88
2022/12/24 02:35:18;;;;;;;2.55;1.50;;;13.30;99.90;;;;;;5034196;28;20049;-88
2022/12/24 02:37:49;;;;;;;1.92;1.25;;;13.20;99.90;;;;;;5034536;28;20035;-88
2022/12/24 02:40:21;;;;;;;2.58;1.50;;;13.20;99.90;;;;;;5034243;28;20091;-88
2022/12/24 02:42:56;;;;;;;2.35;1.30;;;13.30;99.90;;;;;;5033999;28;20076;-88
2022/12/24 02:45:28;;;;;;;1.70;1.23;;;13.30;99.90;;;;;;5034212;28;20064;-88
2022/12/24 02:47:54;;;;;;;1.58;1.13;;;13.30;99.90;;;;;;5034151;28;20113;-88
2022/12/24 02:50:22;;;;;;;2.10;1.30;;;13.30;99.90;;;;;;5034100;28;20029;-88
2022/12/24 02:52:48;;;;;;;1.50;1.40;;;13.30;99.90;;;;;;5016165;28;20022;-88
2022/12/24 02:55:20;;;;;;;1.50;1.00;;;13.30;99.90;;;;;;5034582;28;20512;-88
2022/12/24 02:58:07;;;;;;;0.98;0.88;;;13.30;99.90;;;;;;5033625;28;20541;-88
2022/12/24 03:01:17;;;;;;;1.05;0.98;;;13.30;99.90;;;;;;5033746;28;20060;-88
2022/12/24 03:04:02;;;;;;;1.50;0.88;;;13.30;99.90;;;;;;5033640;28;20029;-88
2022/12/24 03:07:05;;;;;;;0.80;0.80;;;13.30;99.90;;;;;;5033730;28;20100;-89
2022/12/24 03:09:48;;;;;;;1.33;0.80;;;13.30;99.90;;;;;;4918476;29;20440;-87
2022/12/24 03:12:38;;;;;;;2.72;1.30;;;13.30;99.90;;;;;;4934135;29;20111;-88
2022/12/24 03:15:06;;;;;;;2.35;1.55;;;13.30;99.90;;;;;;4934129;29;20095;-88
2022/12/24 03:17:36;;;;;;;3.22;1.25;;;13.30;99.90;;;;;;4934123;29;20436;-88
2022/12/24 03:20:02;;;;;;;1.30;0.85;;;13.30;99.90;;;;;;4934786;29;20528;-88
2022/12/24 03:22:31;;;;;;;3.42;0.93;;;13.40;99.90;;;;;;4934474;29;20032;-88
2022/12/24 03:24:56;;;;;;;1.45;0.90;;;13.40;99.90;;;;;;4934229;29;20062;-88
2022/12/24 03:27:25;;;;;;;1.45;1.10;;;13.40;99.90;;;;;;4933743;29;20505;-88
2022/12/24 03:29:51;;;;;;;1.98;1.10;;;13.30;99.90;;;;;;4917994;29;20066;-88
2022/12/24 03:32:27;;;;;;;1.73;0.90;;;13.30;99.90;;;;;;4918567;28;20477;-88
2022/12/24 03:34:53;;;;;;;2.05;1.10;;;13.30;99.90;;;;;;4934615;29;20039;-88
2022/12/24 03:37:18;;;;;;;1.50;1.08;;;13.30;99.90;;;;;;4933760;29;20032;-87
2022/12/24 03:39:44;;;;;;;2.95;0.77;;;13.30;99.90;;;;;;4933650;29;20056;-88
2022/12/24 03:42:10;;;;;;;1.77;1.08;;;13.30;99.90;;;;;;4934032;29;20678;-88
2022/12/24 03:44:35;;;;;;;1.75;1.10;;;13.20;99.90;;;;;;4966975;28;20057;-88
2022/12/24 03:47:01;;;;;;;1.88;0.98;;;13.30;99.90;;;;;;5032885;28;20033;-88
2022/12/24 03:49:26;;;;;;;1.15;0.95;;;13.20;99.90;;;;;;5033346;28;20036;-88
2022/12/24 03:51:52;;;;;;;1.00;0.90;;;13.30;99.90;;;;;;5032831;28;20032;-87
2022/12/24 03:54:18;;;;;;;0.80;0.75;;;13.30;99.90;;;;;;5032802;28;20075;-88
2022/12/24 03:56:43;;;;;;;2.38;1.00;;;13.30;99.90;;;;;;5032507;28;20040;-88
2022/12/24 03:59:09;;;;;;;1.40;1.00;;;13.20;99.90;;;;;;5032683;28;20084;-88
2022/12/24 04:01:35;;;;;;;2.15;1.13;;;13.00;99.90;;;;;;5033193;28;20405;-87
2022/12/24 04:04:00;;;;;;;3.25;1.02;;;13.00;99.90;;;;;;5032767;28;20041;-88
2022/12/24 04:06:26;;;;;;;2.67;0.90;;;13.00;99.90;;;;;;5032894;28;20056;-88
2022/12/24 04:08:52;;;;;;;1.65;0.93;;;13.00;99.90;;;;;;5033706;28;20057;-88
2022/12/24 04:11:18;;;;;;;1.35;0.90;;;13.10;99.90;;;;;;5015069;28;20020;-88
2022/12/24 04:13:44;;;;;;;1.95;1.00;;;13.20;99.90;;;;;;5032636;28;20022;-88
2022/12/24 04:16:12;;;;;;;2.05;1.02;;;13.20;99.90;;;;;;5015031;28;20056;-89
2022/12/24 04:18:38;;;;;;;2.00;1.00;;;13.20;99.90;;;;;;5029629;28;20049;-88
2022/12/24 04:21:05;;;;;;;0.95;0.90;;;13.20;99.90;;;;;;5032906;28;20175;-89
2022/12/24 04:23:32;;;;;;;2.72;1.15;;;13.30;99.90;;;;;;5032795;28;20037;-89
2022/12/24 04:26:01;;;;;;;1.55;0.93;;;13.20;99.90;;;;;;5032137;28;20029;-88
2022/12/24 04:28:32;;;;;;;1.27;1.13;;;13.20;99.90;;;;;;5032281;28;20490;-88
2022/12/24 04:30:59;;;;;;;2.17;1.20;;;13.10;99.90;;;;;;5032784;28;20026;-89
2022/12/24 04:33:25;;;;;;;1.67;1.15;;;13.10;99.90;;;;;;5032534;28;20021;-91
2022/12/24 04:35:50;;;;;;;3.38;1.30;;;13.10;99.90;;;;;;5032455;28;20021;-90
2022/12/24 04:38:16;;;;;;;2.25;1.20;;;13.10;99.90;;;;;;5031798;28;20481;-91
2022/12/24 04:40:41;;;;;;;2.55;1.27;;;13.10;99.90;;;;;;5031855;28;20507;-91
2022/12/24 04:43:07;;;;;;;1.45;1.10;;;13.10;99.90;;;;;;5032354;28;20025;-90
2022/12/24 04:45:33;;;;;;;4.45;1.17;;;13.20;99.90;;;;;;5032763;28;20026;-90
2022/12/24 04:47:58;;;;;;;1.20;1.10;;;13.00;99.90;;;;;;5032584;28;20018;-90
2022/12/24 04:50:24;;;;;;;1.90;1.02;;;13.10;99.90;;;;;;5032200;28;20026;-90
2022/12/24 04:52:50;;;;;;;1.77;1.10;;;12.90;99.90;;;;;;5031678;28;20025;-90
2022/12/24 04:55:15;;;;;;;2.35;1.23;;;12.90;99.90;;;;;;5032190;28;20068;-90
2022/12/24 04:57:41;;;;;;;2.17;1.20;;;13.00;99.90;;;;;;5032165;28;20080;-90
2022/12/24 05:00:08;;;;;;;2.83;1.10;;;12.90;99.90;;;;;;5014444;28;20044;-90
2022/12/24 05:02:34;;;;;;;1.90;1.20;;;13.00;99.90;;;;;;5014525;28;20025;-91
2022/12/24 05:04:59;;;;;;;1.48;1.08;;;13.00;99.90;;;;;;5031929;28;20041;-91
2022/12/24 05:07:25;;;;;;;3.90;1.20;;;13.00;99.90;;;;;;5031572;28;20048;-91
2022/12/24 05:09:51;;;;;;;1.40;1.20;;;13.00;99.90;;;;;;5031906;28;20107;-90
2022/12/24 05:12:16;;;;;;;1.65;1.10;;;13.00;99.90;;;;;;5033016;28;20026;-90
2022/12/24 05:14:42;;;;;;;2.38;1.23;;;13.00;99.90;;;;;;5032000;28;20033;-90
2022/12/24 05:17:07;;;;;;;2.03;1.35;;;13.00;99.90;;;;;;5031860;28;20022;-90
2022/12/24 05:19:33;;;;;;;1.92;1.30;;;13.00;99.90;;;;;;5014325;28;20091;-90
2022/12/24 05:27:27;;;;;;;2.45;1.20;;;13.00;99.90;;;;;;5031872;28;20064;-91
2022/12/24 05:29:53;;;;;;;2.33;1.08;;;13.00;99.90;;;;;;5014946;28;20039;-90
2022/12/24 05:32:18;;;;;;;2.75;1.10;;;13.00;99.90;;;;;;5017938;28;20025;-91
2022/12/24 05:34:44;;;;;;;2.63;1.35;;;13.00;99.90;;;;;;5035741;28;20422;-90
2022/12/24 05:37:09;;;;;;;3.67;1.25;;;13.00;99.90;;;;;;5035339;28;20116;-90
2022/12/24 05:39:35;;;;;;;1.50;1.30;;;12.90;99.90;;;;;;5035549;28;20083;-90
2022/12/24 05:42:01;;;;;;;2.88;1.30;;;12.90;99.90;;;;;;5035392;28;20029;-90
2022/12/24 05:44:26;;;;;;;3.65;1.50;;;12.90;99.90;;;;;;5035448;28;20040;-90
2022/12/24 05:46:52;;;;;;;1.70;1.40;;;12.90;99.90;;;;;;5035386;28;20033;-90
2022/12/24 05:49:18;;;;;;;3.25;1.70;;;12.90;99.90;;;;;;5017757;28;20037;-88
2022/12/24 05:51:43;;;;;;;2.05;1.40;;;12.80;99.90;;;;;;5035280;28;20063;-88
2022/12/24 05:54:09;;;;;;;4.28;1.90;;;12.80;99.90;;;;;;5034985;28;20025;-88
2022/12/24 05:56:35;;;;;;;2.03;1.50;;;12.80;99.90;;;;;;5035196;28;20065;-88
2022/12/24 05:59:00;;;;;;;3.10;1.70;;;12.80;99.90;;;;;;5035117;28;20021;-88
2022/12/24 06:01:26;;;;;;;3.35;1.95;;;12.80;99.90;;;;;;5034991;28;20393;-88
2022/12/24 06:03:52;;;;;;;3.30;2.40;;;12.70;99.90;;;;;;5034343;28;20032;-88
2022/12/24 06:06:22;;;;;;;4.55;2.20;;;12.60;99.90;;;;;;5017291;28;20064;-88
2022/12/24 06:08:49;;;;;;;5.68;1.80;;;12.60;99.90;;;;;;5017672;28;20018;-91
2022/12/24 06:11:17;;;;;;;2.05;1.75;;;12.60;99.90;;;;;;5017075;28;20473;-91
2022/12/24 06:13:43;;;;;;;2.38;1.63;;;12.60;99.90;;;;;;5034800;28;20473;-90
2022/12/24 06:16:12;;;;;;;2.58;1.77;;;12.70;99.90;;;;;;5035190;28;20037;-90
2022/12/24 06:18:41;;;;;;;1.95;1.27;;;12.70;99.90;;;;;;5034631;28;20069;-90
2022/12/24 06:21:09;;;;;;;2.70;1.40;;;12.70;99.90;;;;;;5034224;28;20056;-90
2022/12/24 06:23:37;;;;;;;2.25;1.10;;;12.70;99.90;;;;;;5034810;28;20100;-91
2022/12/24 06:26:05;;;;;;;2.95;1.30;;;12.70;99.90;;;;;;5034640;28;20548;-90
2022/12/24 06:28:34;;;;;;;4.38;2.47;;;12.70;99.90;;;;;;5034347;28;20079;-90
2022/12/24 06:31:00;;;;;;;3.72;2.30;;;12.70;99.90;;;;;;5034501;28;20083;-90
2022/12/24 06:33:26;;;;;;;4.45;2.47;;;12.70;99.90;;;;;;5034512;28;20096;-90
2022/12/24 06:35:52;;;;;;;6.78;2.72;;;12.70;99.90;;;;;;5034120;28;20036;-90
2022/12/24 06:38:17;;;;;;;3.88;2.50;;;12.70;99.90;;;;;;5034490;28;20025;-91
2022/12/24 06:40:45;;;;;;;3.45;2.47;;;12.80;99.90;;;;;;5033804;28;20079;-90
2022/12/24 06:43:12;;;;;;;3.42;1.48;;;12.70;99.90;;;;;;5034323;28;20025;-90
2022/12/24 06:45:38;;;;;;;2.58;1.42;;;12.70;99.90;;;;;;5034898;28;20477;-90
2022/12/24 06:48:05;;;;;;;2.42;1.52;;;12.60;99.90;;;;;;5034420;28;20060;-90
2022/12/24 06:50:32;;;;;;;3.10;1.40;;;12.60;99.90;;;;;;5033730;28;20022;-91
2022/12/24 06:52:58;;;;;;;3.58;1.30;;;12.70;99.90;;;;;;5033910;28;20036;-90
2022/12/24 06:55:23;;;;;;;1.98;1.35;;;12.70;99.90;;;;;;5034233;28;20022;-90
2022/12/24 06:57:49;;;;;;;4.50;1.70;;;12.60;99.90;;;;;;5034101;28;20509;-90
2022/12/24 07:00:15;;;;;;;2.55;1.85;;;12.70;99.90;;;;;;5033990;28;20449;-90
2022/12/24 07:02:42;;;;;;;5.38;1.88;;;12.70;99.90;;;;;;5034402;28;20277;-90
2022/12/24 07:05:10;;;;;;;2.72;1.77;;;12.70;99.90;;;;;;5034183;28;20040;-90
2022/12/24 07:07:40;;;;;;;3.17;2.20;;;12.70;99.90;;;;;;5033922;28;20030;-90
2022/12/24 07:10:07;;;;;;;4.82;3.20;;;12.60;99.90;;;;;;5033865;28;20033;-89
2022/12/24 07:12:32;;;;;;;10.05;6.82;;;12.60;99.90;;;;;;5034488;28;20091;-90
2022/12/24 07:14:58;;;;;;;14.93;8.10;;;12.50;99.90;;;;;;5032715;28;20504;-89
2022/12/24 07:17:24;;;;;;;10.02;7.63;;;12.50;99.90;;;;;;5033038;28;20140;-88
2022/12/24 07:19:49;;;;;;;7.57;5.82;;;12.50;99.90;;;;;;5032693;28;20060;-89
2022/12/24 07:22:15;;;;;;;7.45;5.43;;;12.40;99.90;;;;;;5033501;28;20029;-89
2022/12/24 07:24:41;;;;;;;9.05;6.75;;;12.50;99.90;;;;;;5033623;28;20021;-88
2022/12/24 07:27:07;;;;;;;10.57;7.50;;;12.50;99.90;;;;;;5033724;28;20025;-88
2022/12/24 07:29:33;;;;;;;7.95;6.13;;;12.50;99.90;;;;;;5033591;28;20443;-89
2022/12/24 07:31:59;;;;;;;8.18;5.78;;;12.70;99.90;;;;;;5033374;28;20061;-89
2022/12/24 07:34:25;;;;;;;10.27;5.60;;;12.70;99.90;;;;;;5032521;28;20071;-88
2022/12/24 07:36:50;;;;;;;9.35;5.40;;;12.80;99.90;;;;;;5033264;28;20026;-88
2022/12/24 07:39:16;;;;;;;8.93;5.53;;;12.60;99.90;;;;;;5032831;28;20029;-88
2022/12/24 07:41:42;;;;;;;7.80;4.75;;;12.50;99.90;;;;;;5033213;28;20041;-88
2022/12/24 07:44:14;;;;;;;7.15;3.63;;;12.60;99.90;;;;;;5034031;28;20036;-89
2022/12/24 07:46:39;;;;;;;7.72;3.78;;;12.70;99.90;;;;;;5015091;28;20043;-88
2022/12/24 07:49:06;;;;;;;4.10;2.83;;;12.70;99.90;;;;;;5033572;28;20022;-86
2022/12/24 07:51:32;;;;;;;6.82;2.80;;;12.70;99.90;;;;;;5032758;28;20079;-83
2022/12/24 07:53:57;;;;;;;6.47;3.00;;;12.80;99.90;;;;;;5031803;28;20379;-83
2022/12/24 07:56:23;;;;;;;6.55;3.25;;;12.90;99.90;;;;;;5032903;28;20402;-82
2022/12/24 07:58:50;;;;;;;4.57;3.53;;;13.00;99.90;;;;;;5033585;28;20087;-83
2022/12/24 08:01:16;;;;;;;5.10;4.18;;;13.10;99.90;;;;;;5032905;28;20377;-82
2022/12/24 08:03:42;;;;;;;4.97;4.45;;;13.20;99.90;;;;;;5032764;28;20032;-83
2022/12/24 08:06:08;;;;;;;5.97;5.10;;;13.20;99.90;;;;;;5032802;28;20021;-84
2022/12/24 08:08:35;;;;;;;7.07;5.10;;;13.30;99.90;;;;;;5032435;28;20030;-84
2022/12/24 08:11:03;;;;;;;7.60;5.90;;;13.40;99.90;;;;;;5032574;28;20025;-85
2022/12/24 08:13:29;;;;;;;9.35;7.32;;;13.50;99.90;;;;;;5032963;28;20414;-84
2022/12/24 08:15:54;;;;;;;9.55;8.35;;;13.60;99.90;;;;;;5032197;28;20436;-84
2022/12/24 08:18:20;;;;;;;10.73;8.15;;;13.90;99.90;;;;;;5032224;28;20045;-84
2022/12/24 08:20:46;;;;;;;11.07;7.18;;;14.20;99.90;;;;;;5032283;28;20109;-84
2022/12/24 08:23:12;;;;;;;7.65;5.90;;;13.90;99.90;;;;;;5033432;28;20057;-85
2022/12/24 08:25:45;;;;;;;9.63;6.95;;;13.70;99.90;;;;;;5032817;28;20061;-84
2022/12/24 08:28:11;;;;;;;7.15;6.38;;;14.10;99.90;;;;;;5032640;28;20386;-84
2022/12/24 08:30:37;;;;;;;7.68;4.65;;;13.60;99.90;;;;;;5031891;28;20523;-85
2022/12/24 08:33:03;;;;;;;6.07;4.93;;;13.80;99.90;;;;;;5032135;28;20033;-85
2022/12/24 08:35:28;;;;;;;9.60;6.30;;;14.20;99.90;;;;;;5032589;28;20053;-85
2022/12/24 08:37:54;;;;;;;5.05;4.10;;;14.50;99.90;;;;;;5032015;28;20022;-85
2022/12/24 08:40:20;;;;;;;5.25;4.05;;;15.10;99.90;;;;;;5014788;28;20072;-85
2022/12/24 08:42:46;;;;;;;6.15;4.93;;;17.30;99.90;;;;;;5032281;28;20032;-85
2022/12/24 08:45:11;;;;;;;8.40;4.43;;;18.30;99.90;;;;;;5031839;28;20033;-84
2022/12/24 08:47:38;;;;;;;5.05;4.15;;;17.80;99.90;;;;;;5014432;28;20021;-85
2022/12/24 08:50:04;;;;;;;5.40;4.35;;;19.40;99.90;;;;;;5032592;28;20033;-84
2022/12/24 08:52:30;;;;;;;6.18;3.78;;;21.60;99.90;;;;;;5031842;28;20525;-85
2022/12/24 08:54:56;;;;;;;10.45;5.30;;;21.40;99.90;;;;;;5032197;28;20113;-83
2022/12/24 08:57:21;;;;;;;8.52;5.60;;;18.00;99.90;;;;;;5032347;28;20100;-83
2022/12/24 08:59:47;;;;;;;4.90;4.47;;;15.80;99.90;;;;;;5031661;28;20112;-83
2022/12/24 09:02:13;;;;;;;7.18;5.05;;;15.10;99.90;;;;;;5032175;28;20084;-83
2022/12/24 09:04:39;;;;;;;6.50;5.53;;;14.80;99.90;;;;;;5033798;28;20040;-83
2022/12/24 09:07:05;;;;;;;6.93;5.80;;;14.90;99.90;;;;;;5035959;28;20022;-83
2022/12/24 09:09:31;;;;;;;6.10;5.47;;;14.90;99.90;;;;;;5036153;28;20026;-83
2022/12/24 09:11:56;;;;;;;7.00;5.40;;;14.10;99.90;;;;;;5035874;28;20032;-83
2022/12/24 09:14:22;;;;;;;6.03;5.13;;;14.10;99.90;;;;;;5035848;28;20018;-83
2022/12/24 09:16:47;;;;;;;7.70;5.35;;;14.40;99.90;;;;;;5035851;28;20030;-83
2022/12/24 09:19:13;;;;;;;8.45;5.35;;;14.30;99.90;;;;;;5035739;28;20042;-83
2022/12/24 09:21:39;;;;;;;6.97;5.63;;;14.70;99.90;;;;;;5036136;28;20109;-83
2022/12/24 09:24:05;;;;;;;8.68;5.32;;;15.10;99.90;;;;;;5035837;28;20026;-83
2022/12/24 09:26:31;;;;;;;8.13;4.95;;;15.50;99.90;;;;;;5017739;28;20025;-83
2022/12/24 09:28:58;;;;;;;5.28;4.60;;;16.00;99.90;;;;;;5035335;28;20477;-85
2022/12/24 09:31:23;;;;;;;7.28;5.28;;;16.30;99.90;;;;;;5018101;28;20182;-85
2022/12/24 09:33:50;;;;;;;7.30;4.93;;;16.10;99.90;;;;;;5035304;28;20515;-85
2022/12/24 09:36:17;;;;;;;7.13;5.63;;;16.00;99.90;;;;;;5035531;28;20059;-85
2022/12/24 09:38:43;;;;;;;8.23;5.97;;;15.60;99.90;;;;;;5035427;28;20036;-84
2022/12/24 09:41:32;;;;;;;8.30;6.28;;;15.30;99.90;;;;;;5036044;28;20426;-85
2022/12/24 09:44:45;;;;;;;6.85;6.15;;;15.30;99.90;;;;;;5035525;28;20025;-84
2022/12/24 09:47:41;;;;;;;7.78;6.15;;;15.30;99.90;;;;;;4973714;28;20070;-85
2022/12/24 09:50:35;;;;;;;7.65;6.32;;;15.40;99.90;;;;;;4974539;28;20030;-85
2022/12/24 09:53:06;;;;;;;6.43;5.82;;;15.60;99.90;;;;;;4974074;28;20085;-85
2022/12/24 09:55:39;;;;;;;8.80;6.82;;;15.90;99.90;;;;;;4974212;28;20027;-85
2022/12/24 09:58:10;;;;;;;8.60;6.28;;;16.00;99.90;;;;;;4973910;28;20045;-85
2022/12/24 10:00:37;;;;;;;9.48;6.60;;;16.00;99.90;;;;;;4974065;28;20530;-85
2022/12/24 10:03:14;;;;;;;8.60;6.03;;;16.00;99.90;;;;;;4974274;28;20030;-85
2022/12/24 10:06:18;;;;;;;6.53;5.82;;;16.00;99.90;;;;;;4973826;28;20513;-84
2022/12/24 10:08:49;;;;;;;8.38;6.35;;;16.10;99.90;;;;;;4971595;28;20122;-84
2022/12/24 10:11:41;;;;;;;7.40;6.05;;;16.70;99.90;;;;;;4973794;28;20113;-85
2022/12/24 10:14:48;;;;;;;7.45;6.10;;;17.30;99.90;;;;;;4973818;28;20635;-85
2022/12/24 10:17:23;;;;;;;6.40;5.63;;;17.40;99.90;;;;;;4972243;28;20038;-84
2022/12/24 10:20:25;;;;;;;6.40;5.68;;;17.50;99.90;;;;;;4973664;28;20043;-85
2022/12/24 10:23:03;;;;;;;8.05;5.20;;;17.20;99.90;;;;;;4992853;28;20053;-85
2022/12/24 10:25:32;;;;;;;5.47;4.95;;;16.90;99.90;;;;;;5034572;28;20095;-85
2022/12/24 10:28:01;;;;;;;6.13;4.60;;;16.70;99.90;;;;;;5034953;28;20426;-85
2022/12/24 10:30:27;;;;;;;5.55;4.93;;;16.80;99.90;;;;;;5034753;28;20025;-84
2022/12/24 10:32:54;;;;;;;6.28;4.75;;;17.50;99.90;;;;;;5034599;28;20112;-84
2022/12/24 10:35:28;;;;;;;5.97;4.95;;;17.50;99.90;;;;;;5034641;28;20060;-84
2022/12/24 10:37:55;;;;;;;5.13;4.63;;;17.40;99.90;;;;;;5034368;28;20495;-85
2022/12/24 10:40:41;;;;;;;5.32;4.32;;;17.30;99.90;;;;;;5034212;28;20022;-84
2022/12/24 10:43:21;;;;;;;5.47;4.65;;;16.90;99.90;;;;;;5034580;28;20100;-84
2022/12/24 10:46:02;;;;;;;4.90;4.47;;;16.70;99.90;;;;;;5033900;28;20108;-84
2022/12/24 10:48:48;;;;;;;5.10;4.28;;;16.90;99.90;;;;;;5033954;28;20049;-84
2022/12/24 10:51:36;;;;;;;4.82;4.03;;;17.10;99.90;;;;;;5034418;28;20049;-83
2022/12/24 10:54:23;;;;;;;5.35;4.43;;;17.40;99.90;;;;;;5034204;28;20026;-82
2022/12/24 10:56:54;;;;;;;5.85;4.63;;;17.30;99.90;;;;;;5034111;28;20029;-83
2022/12/24 10:59:38;;;;;;;6.07;4.65;;;17.40;99.90;;;;;;5034126;28;20128;-82
2022/12/24 11:02:27;;;;;;;7.53;5.25;;;17.20;99.90;;;;;;5033984;28;20037;-82
2022/12/24 11:04:53;;;;;;;5.55;4.97;;;17.10;99.90;;;;;;5033817;28;20095;-82
2022/12/24 11:07:21;;;;;;;6.90;5.07;;;17.30;99.90;;;;;;5033538;28;20029;-82
2022/12/24 11:10:00;;;;;;;9.98;5.43;;;17.40;99.90;;;;;;5033517;28;20025;-83
2022/12/24 11:12:32;;;;;;;7.43;5.13;;;17.40;99.90;;;;;;5016009;28;20444;-83
2022/12/24 11:15:03;;;;;;;5.30;4.80;;;17.80;99.90;;;;;;5033885;28;20041;-82
2022/12/24 11:17:29;;;;;;;7.53;5.20;;;18.10;99.90;;;;;;5033438;28;20076;-83
2022/12/24 11:19:55;;;;;;;5.85;4.97;;;18.30;99.90;;;;;;5033395;28;20400;-82
2022/12/24 11:22:24;;;;;;;6.10;4.70;;;18.40;99.90;;;;;;5033472;28;20108;-83
2022/12/24 11:25:04;;;;;;;5.05;4.38;;;19.00;99.90;;;;;;5033114;28;20030;-83
2022/12/24 11:27:38;;;;;;;6.05;4.20;;;20.10;99.90;;;;;;5033338;28;20029;-82
2022/12/24 11:30:29;;;;;;;8.07;4.57;;;20.50;99.90;;;;;;5033750;28;20342;-82
2022/12/24 11:33:16;;;;;;;4.70;4.20;;;21.50;99.90;;;;;;5021815;28;20037;-83
2022/12/24 11:35:46;;;;;;;5.05;4.38;;;21.30;99.90;;;;;;5013725;28;20461;-83
2022/12/24 11:38:19;;;;;;;4.95;4.32;;;20.70;99.90;;;;;;5013576;28;20065;-83
2022/12/24 11:40:48;;;;;;;5.25;3.95;;;20.40;99.90;;;;;;5012957;28;20038;-83
2022/12/24 11:43:20;;;;;;;5.72;4.18;;;20.20;99.90;;;;;;5013058;28;20562;-83
2022/12/24 11:45:55;;;;;;;5.68;4.38;;;20.00;99.90;;;;;;5013588;28;20117;-83
2022/12/24 11:48:28;;;;;;;5.72;4.78;;;20.00;99.90;;;;;;5014269;28;20489;-82
2022/12/24 11:51:02;;;;;;;5.15;4.05;;;21.30;99.90;;;;;;5013235;28;20054;-83
2022/12/24 11:53:47;;;;;;;4.85;4.32;;;23.00;99.90;;;;;;5024572;28;20057;-83
2022/12/24 11:56:26;;;;;;;5.35;3.67;;;24.50;99.90;;;;;;5033073;28;20444;-83
2022/12/24 11:58:57;;;;;;;5.80;4.22;;;25.40;99.90;;;;;;5033122;28;20017;-82
2022/12/24 12:01:51;;;;;;;5.47;4.65;;;26.00;99.90;;;;;;5032669;28;20107;-83
2022/12/24 12:04:21;;;;;;;4.90;3.80;;;25.50;99.90;;;;;;5032711;28;20025;-83
2022/12/24 12:06:54;;;;;;;5.28;3.22;;;24.00;99.90;;;;;;5032606;28;20022;-83
2022/12/24 12:09:29;;;;;;;4.80;3.97;;;23.00;99.90;;;;;;5032242;28;20122;-85
2022/12/24 12:12:00;;;;;;;4.68;3.75;;;21.80;99.90;;;;;;5032351;28;20418;-84
2022/12/24 12:14:46;;;;;;;3.42;3.13;;;21.10;99.90;;;;;;5032854;28;20120;-84
2022/12/24 12:17:30;;;;;;;4.75;3.63;;;21.10;99.90;;;;;;5032187;28;20119;-82
2022/12/24 12:20:10;;;;;;;3.38;3.08;;;21.80;99.90;;;;;;5032627;28;20045;-82
2022/12/24 12:22:54;;;;;;;3.75;3.40;;;23.60;99.90;;;;;;5031565;28;20022;-83
2022/12/24 12:25:45;;;;;;;3.60;3.20;;;23.70;99.90;;;;;;5032727;28;20041;-83
2022/12/24 12:28:42;;;;;;;4.32;3.60;;;23.50;99.90;;;;;;5032505;28;20363;-83
2022/12/24 12:31:08;;;;;;;4.97;3.35;;;22.30;99.90;;;;;;4932965;29;20031;-83
2022/12/24 12:33:42;;;;;;;3.22;2.63;;;22.00;99.90;;;;;;4937932;29;20039;-82
2022/12/24 12:36:09;;;;;;;3.15;2.70;;;21.90;99.90;;;;;;4952092;28;20050;-83
2022/12/24 12:38:36;;;;;;;3.97;2.20;;;21.80;99.90;;;;;;4951365;28;20111;-83
2022/12/24 12:41:22;;;;;;;4.10;2.47;;;20.80;99.90;;;;;;4951631;28;20500;-82
2022/12/24 12:44:11;;;;;;;3.38;2.30;;;19.80;99.90;;;;;;4952148;28;20027;-82
2022/12/24 12:47:12;;;;;;;2.95;2.25;;;19.50;99.90;;;;;;4951726;28;20110;-83
2022/12/24 12:50:07;;;;;;;2.65;2.35;;;19.50;99.90;;;;;;4951623;28;20043;-82
2022/12/24 12:52:41;;;;;;;2.78;2.33;;;20.30;99.90;;;;;;4947245;28;20036;-83
2022/12/24 12:55:34;;;;;;;4.30;3.00;;;21.30;99.90;;;;;;4932573;29;20063;-82
2022/12/24 12:58:05;;;;;;;3.90;3.40;;;21.80;99.90;;;;;;4932296;29;20107;-82
2022/12/24 13:00:37;;;;;;;3.67;3.28;;;21.10;99.90;;;;;;4932952;28;20406;-83
2022/12/24 13:03:24;;;;;;;3.65;3.35;;;21.50;99.90;;;;;;4933135;29;20016;-83
2022/12/24 13:06:02;;;;;;;3.80;3.38;;;22.30;99.90;;;;;;4932165;29;20042;-83
2022/12/24 13:09:01;;;;;;;4.85;3.60;;;22.00;99.90;;;;;;5007727;28;20033;-83
2022/12/24 13:11:39;;;;;;;3.60;3.30;;;20.90;99.90;;;;;;5031845;28;20079;-82
2022/12/24 13:14:14;;;;;;;4.10;3.70;;;21.10;99.90;;;;;;5031906;28;20017;-83
2022/12/24 13:17:11;;;;;;;6.32;3.83;;;21.60;99.90;;;;;;5032144;28;20033;-82